15/03/05 - 22h:32mDenunciar

Dassault Mirage III RS

METAR SBPB 160100Z 06012KT 9999 SCT020 29/25 Q1011=

Comentários (0)

Fotos postadas a mais de 15 dias não podem receber comentários.